sensor_id;sensor_type;location;lat;lon;timestamp;temperature;humidity
4584;DHT22;2304;47.606;12.186;2024-02-16T00:02:21;8.10;65.60
4584;DHT22;2304;47.606;12.186;2024-02-16T00:07:24;8.20;65.90
4584;DHT22;2304;47.606;12.186;2024-02-16T00:12:27;8.20;65.30
4584;DHT22;2304;47.606;12.186;2024-02-16T00:17:29;8.20;64.80
4584;DHT22;2304;47.606;12.186;2024-02-16T00:22:32;8.20;64.80
4584;DHT22;2304;47.606;12.186;2024-02-16T00:27:34;8.10;65.40
4584;DHT22;2304;47.606;12.186;2024-02-16T00:32:36;8.00;65.40
4584;DHT22;2304;47.606;12.186;2024-02-16T00:37:39;8.00;65.40
4584;DHT22;2304;47.606;12.186;2024-02-16T00:42:41;7.90;65.70
4584;DHT22;2304;47.606;12.186;2024-02-16T00:47:43;7.90;65.90
4584;DHT22;2304;47.606;12.186;2024-02-16T00:52:47;7.90;65.60
4584;DHT22;2304;47.606;12.186;2024-02-16T00:57:48;8.00;65.30
4584;DHT22;2304;47.606;12.186;2024-02-16T01:02:52;7.90;65.20
4584;DHT22;2304;47.606;12.186;2024-02-16T01:07:55;7.80;65.50
4584;DHT22;2304;47.606;12.186;2024-02-16T01:12:57;7.70;66.20
4584;DHT22;2304;47.606;12.186;2024-02-16T01:17:59;7.60;66.00
4584;DHT22;2304;47.606;12.186;2024-02-16T01:23:03;7.60;66.40
4584;DHT22;2304;47.606;12.186;2024-02-16T01:28:05;7.70;66.60
4584;DHT22;2304;47.606;12.186;2024-02-16T01:33:07;7.60;66.20
4584;DHT22;2304;47.606;12.186;2024-02-16T01:38:11;7.50;66.50
4584;DHT22;2304;47.606;12.186;2024-02-16T01:43:18;7.80;66.40
4584;DHT22;2304;47.606;12.186;2024-02-16T01:48:20;7.60;65.70
4584;DHT22;2304;47.606;12.186;2024-02-16T01:53:24;7.60;65.70
4584;DHT22;2304;47.606;12.186;2024-02-16T01:58:26;7.50;65.70
4584;DHT22;2304;47.606;12.186;2024-02-16T02:03:29;7.40;66.00
4584;DHT22;2304;47.606;12.186;2024-02-16T02:08:32;7.30;66.50
4584;DHT22;2304;47.606;12.186;2024-02-16T02:13:34;7.20;66.40
4584;DHT22;2304;47.606;12.186;2024-02-16T02:18:36;7.20;66.40
4584;DHT22;2304;47.606;12.186;2024-02-16T02:23:39;7.20;66.70
4584;DHT22;2304;47.606;12.186;2024-02-16T02:28:41;7.20;66.50
4584;DHT22;2304;47.606;12.186;2024-02-16T02:33:43;7.20;66.60
4584;DHT22;2304;47.606;12.186;2024-02-16T02:38:46;7.40;66.90
4584;DHT22;2304;47.606;12.186;2024-02-16T02:43:48;7.10;66.70
4584;DHT22;2304;47.606;12.186;2024-02-16T02:48:50;7.10;66.80
4584;DHT22;2304;47.606;12.186;2024-02-16T02:53:54;7.10;66.60
4584;DHT22;2304;47.606;12.186;2024-02-16T02:58:55;7.20;66.50
4584;DHT22;2304;47.606;12.186;2024-02-16T03:03:57;7.20;65.90
4584;DHT22;2304;47.606;12.186;2024-02-16T03:09:02;7.30;66.60
4584;DHT22;2304;47.606;12.186;2024-02-16T03:14:03;7.20;65.50
4584;DHT22;2304;47.606;12.186;2024-02-16T03:19:06;7.20;65.80
4584;DHT22;2304;47.606;12.186;2024-02-16T03:24:10;7.10;66.00
4584;DHT22;2304;47.606;12.186;2024-02-16T03:29:12;7.00;67.10
4584;DHT22;2304;47.606;12.186;2024-02-16T03:34:14;6.90;66.50
4584;DHT22;2304;47.606;12.186;2024-02-16T03:39:17;6.80;66.70
4584;DHT22;2304;47.606;12.186;2024-02-16T03:44:20;6.80;67.00
4584;DHT22;2304;47.606;12.186;2024-02-16T03:49:23;6.80;67.60
4584;DHT22;2304;47.606;12.186;2024-02-16T03:54:26;6.80;66.60
4584;DHT22;2304;47.606;12.186;2024-02-16T03:59:28;6.70;66.90
4584;DHT22;2304;47.606;12.186;2024-02-16T04:04:29;6.80;66.90
4584;DHT22;2304;47.606;12.186;2024-02-16T04:09:33;6.80;66.50
4584;DHT22;2304;47.606;12.186;2024-02-16T04:14:35;6.60;67.10
4584;DHT22;2304;47.606;12.186;2024-02-16T04:19:37;6.60;67.40
4584;DHT22;2304;47.606;12.186;2024-02-16T04:24:40;6.70;66.90
4584;DHT22;2304;47.606;12.186;2024-02-16T04:29:42;6.70;66.40
4584;DHT22;2304;47.606;12.186;2024-02-16T04:34:44;6.70;66.30
4584;DHT22;2304;47.606;12.186;2024-02-16T04:39:48;6.70;66.20
4584;DHT22;2304;47.606;12.186;2024-02-16T04:44:50;6.70;65.70
4584;DHT22;2304;47.606;12.186;2024-02-16T04:49:52;6.70;65.90
4584;DHT22;2304;47.606;12.186;2024-02-16T04:54:55;6.70;66.10
4584;DHT22;2304;47.606;12.186;2024-02-16T04:59:57;6.60;66.00
4584;DHT22;2304;47.606;12.186;2024-02-16T05:04:59;6.60;66.00
4584;DHT22;2304;47.606;12.186;2024-02-16T05:10:03;6.60;65.80
4584;DHT22;2304;47.606;12.186;2024-02-16T05:15:05;6.60;65.70
4584;DHT22;2304;47.606;12.186;2024-02-16T05:20:11;6.60;65.50
4584;DHT22;2304;47.606;12.186;2024-02-16T05:25:17;6.60;65.40
4584;DHT22;2304;47.606;12.186;2024-02-16T05:30:19;6.60;65.70
4584;DHT22;2304;47.606;12.186;2024-02-16T05:35:21;6.50;65.50
4584;DHT22;2304;47.606;12.186;2024-02-16T05:40:25;6.50;65.70
4584;DHT22;2304;47.606;12.186;2024-02-16T05:45:29;6.50;65.70
4584;DHT22;2304;47.606;12.186;2024-02-16T05:50:31;6.50;65.90
4584;DHT22;2304;47.606;12.186;2024-02-16T05:55:34;6.50;65.90
4584;DHT22;2304;47.606;12.186;2024-02-16T06:00:36;6.40;65.90
4584;DHT22;2304;47.606;12.186;2024-02-16T06:05:38;6.40;65.70
4584;DHT22;2304;47.606;12.186;2024-02-16T06:10:42;6.40;65.80
4584;DHT22;2304;47.606;12.186;2024-02-16T06:15:45;6.40;65.60
4584;DHT22;2304;47.606;12.186;2024-02-16T06:20:47;6.30;66.00
4584;DHT22;2304;47.606;12.186;2024-02-16T06:25:50;6.50;65.90
4584;DHT22;2304;47.606;12.186;2024-02-16T06:30:52;6.20;65.80
4584;DHT22;2304;47.606;12.186;2024-02-16T06:35:54;6.30;65.90
4584;DHT22;2304;47.606;12.186;2024-02-16T06:40:57;6.50;65.70
4584;DHT22;2304;47.606;12.186;2024-02-16T06:45:59;6.30;65.90
4584;DHT22;2304;47.606;12.186;2024-02-16T06:51:01;6.30;66.10
4584;DHT22;2304;47.606;12.186;2024-02-16T06:56:05;6.30;66.10
4584;DHT22;2304;47.606;12.186;2024-02-16T07:01:07;6.30;66.20
4584;DHT22;2304;47.606;12.186;2024-02-16T07:06:09;6.30;66.20
4584;DHT22;2304;47.606;12.186;2024-02-16T07:11:15;6.30;66.10
4584;DHT22;2304;47.606;12.186;2024-02-16T07:16:17;6.30;66.20
4584;DHT22;2304;47.606;12.186;2024-02-16T07:21:19;6.40;66.40
4584;DHT22;2304;47.606;12.186;2024-02-16T07:26:24;6.40;66.10
4584;DHT22;2304;47.606;12.186;2024-02-16T07:31:32;6.50;66.10
4584;DHT22;2304;47.606;12.186;2024-02-16T07:36:34;6.50;65.60
4584;DHT22;2304;47.606;12.186;2024-02-16T07:41:38;6.50;65.70
4584;DHT22;2304;47.606;12.186;2024-02-16T07:46:40;6.50;65.40
4584;DHT22;2304;47.606;12.186;2024-02-16T07:51:42;6.50;65.50
4584;DHT22;2304;47.606;12.186;2024-02-16T07:56:46;6.50;65.50
4584;DHT22;2304;47.606;12.186;2024-02-16T08:01:48;6.80;65.80
4584;DHT22;2304;47.606;12.186;2024-02-16T08:06:50;6.60;65.80
4584;DHT22;2304;47.606;12.186;2024-02-16T08:11:53;7.00;67.30
4584;DHT22;2304;47.606;12.186;2024-02-16T08:16:55;7.60;67.20
4584;DHT22;2304;47.606;12.186;2024-02-16T08:21:56;8.10;66.30
4584;DHT22;2304;47.606;12.186;2024-02-16T08:27:00;8.40;64.70
4584;DHT22;2304;47.606;12.186;2024-02-16T08:32:02;8.90;64.80
4584;DHT22;2304;47.606;12.186;2024-02-16T08:37:05;9.20;63.30
4584;DHT22;2304;47.606;12.186;2024-02-16T08:42:09;9.60;62.20
4584;DHT22;2304;47.606;12.186;2024-02-16T08:47:11;9.90;61.80
4584;DHT22;2304;47.606;12.186;2024-02-16T08:52:13;10.40;60.40
4584;DHT22;2304;47.606;12.186;2024-02-16T08:57:17;10.80;58.40
4584;DHT22;2304;47.606;12.186;2024-02-16T09:02:19;11.00;57.80
4584;DHT22;2304;47.606;12.186;2024-02-16T09:07:21;10.90;57.00
4584;DHT22;2304;47.606;12.186;2024-02-16T09:12:24;10.80;56.70
4584;DHT22;2304;47.606;12.186;2024-02-16T09:17:26;11.20;57.90
4584;DHT22;2304;47.606;12.186;2024-02-16T09:22:28;11.60;56.50
4584;DHT22;2304;47.606;12.186;2024-02-16T09:27:31;12.10;55.80
4584;DHT22;2304;47.606;12.186;2024-02-16T09:32:33;12.30;53.80
4584;DHT22;2304;47.606;12.186;2024-02-16T09:37:35;12.00;53.40
4584;DHT22;2304;47.606;12.186;2024-02-16T09:42:39;11.60;54.00
4584;DHT22;2304;47.606;12.186;2024-02-16T09:47:41;11.40;54.00
4584;DHT22;2304;47.606;12.186;2024-02-16T09:52:47;11.70;54.50
4584;DHT22;2304;47.606;12.186;2024-02-16T09:57:59;12.20;53.80
4584;DHT22;2304;47.606;12.186;2024-02-16T10:03:01;12.80;53.40
4584;DHT22;2304;47.606;12.186;2024-02-16T10:08:11;13.20;51.10
4584;DHT22;2304;47.606;12.186;2024-02-16T10:13:15;13.60;49.80
4584;DHT22;2304;47.606;12.186;2024-02-16T10:18:19;14.00;49.50
4584;DHT22;2304;47.606;12.186;2024-02-16T10:23:21;14.20;48.70
4584;DHT22;2304;47.606;12.186;2024-02-16T10:28:24;14.40;48.00
4584;DHT22;2304;47.606;12.186;2024-02-16T10:33:29;14.70;47.70
4584;DHT22;2304;47.606;12.186;2024-02-16T10:38:31;14.90;47.60
4584;DHT22;2304;47.606;12.186;2024-02-16T10:43:34;14.70;46.80
4584;DHT22;2304;47.606;12.186;2024-02-16T10:48:36;14.40;46.10
4584;DHT22;2304;47.606;12.186;2024-02-16T10:53:38;14.30;47.40
4584;DHT22;2304;47.606;12.186;2024-02-16T10:58:42;14.20;47.50
4584;DHT22;2304;47.606;12.186;2024-02-16T11:03:44;14.40;49.10
4584;DHT22;2304;47.606;12.186;2024-02-16T11:08:49;14.90;48.40
4584;DHT22;2304;47.606;12.186;2024-02-16T11:13:54;15.50;47.90
4584;DHT22;2304;47.606;12.186;2024-02-16T11:18:56;16.00;46.30
4584;DHT22;2304;47.606;12.186;2024-02-16T11:24:06;16.20;45.70
4584;DHT22;2304;47.606;12.186;2024-02-16T11:29:11;16.30;44.70
4584;DHT22;2304;47.606;12.186;2024-02-16T11:34:21;16.50;45.10
4584;DHT22;2304;47.606;12.186;2024-02-16T11:39:24;16.80;44.20
4584;DHT22;2304;47.606;12.186;2024-02-16T11:44:27;16.80;43.60
4584;DHT22;2304;47.606;12.186;2024-02-16T11:49:30;16.60;41.70
4584;DHT22;2304;47.606;12.186;2024-02-16T11:54:32;16.40;42.30
4584;DHT22;2304;47.606;12.186;2024-02-16T11:59:35;16.40;42.20
4584;DHT22;2304;47.606;12.186;2024-02-16T12:04:37;16.60;43.70
4584;DHT22;2304;47.606;12.186;2024-02-16T12:09:39;17.00;44.30
4584;DHT22;2304;47.606;12.186;2024-02-16T12:14:43;17.30;42.10
4584;DHT22;2304;47.606;12.186;2024-02-16T12:19:45;17.60;43.00
4584;DHT22;2304;47.606;12.186;2024-02-16T12:24:47;17.90;42.40
4584;DHT22;2304;47.606;12.186;2024-02-16T12:29:50;18.00;40.80
4584;DHT22;2304;47.606;12.186;2024-02-16T12:34:53;18.00;40.60
4584;DHT22;2304;47.606;12.186;2024-02-16T12:39:55;18.00;40.90
4584;DHT22;2304;47.606;12.186;2024-02-16T12:44:58;18.10;40.80
4584;DHT22;2304;47.606;12.186;2024-02-16T12:50:01;18.50;41.60
4584;DHT22;2304;47.606;12.186;2024-02-16T12:55:03;18.70;40.20
4584;DHT22;2304;47.606;12.186;2024-02-16T13:00:07;18.50;38.40
4584;DHT22;2304;47.606;12.186;2024-02-16T13:05:09;18.60;39.30
4584;DHT22;2304;47.606;12.186;2024-02-16T13:10:11;18.80;39.30
4584;DHT22;2304;47.606;12.186;2024-02-16T13:15:15;18.80;40.20
4584;DHT22;2304;47.606;12.186;2024-02-16T13:20:16;18.70;39.90
4584;DHT22;2304;47.606;12.186;2024-02-16T13:25:19;18.60;39.40
4584;DHT22;2304;47.606;12.186;2024-02-16T13:30:23;18.60;39.60
4584;DHT22;2304;47.606;12.186;2024-02-16T13:35:25;18.70;40.90
4584;DHT22;2304;47.606;12.186;2024-02-16T13:40:26;18.70;40.00
4584;DHT22;2304;47.606;12.186;2024-02-16T13:45:47;18.80;39.20
4584;DHT22;2304;47.606;12.186;2024-02-16T13:50:49;18.80;39.20
4584;DHT22;2304;47.606;12.186;2024-02-16T13:55:51;18.70;39.40
4584;DHT22;2304;47.606;12.186;2024-02-16T14:00:55;18.70;39.90
4584;DHT22;2304;47.606;12.186;2024-02-16T14:05:56;18.90;40.70
4584;DHT22;2304;47.606;12.186;2024-02-16T14:10:59;19.00;40.60
4584;DHT22;2304;47.606;12.186;2024-02-16T14:16:02;18.90;40.70
4584;DHT22;2304;47.606;12.186;2024-02-16T14:21:04;18.70;41.20
4584;DHT22;2304;47.606;12.186;2024-02-16T14:26:07;18.70;41.60
4584;DHT22;2304;47.606;12.186;2024-02-16T14:31:10;18.70;41.90
4584;DHT22;2304;47.606;12.186;2024-02-16T14:36:14;18.80;40.90
4584;DHT22;2304;47.606;12.186;2024-02-16T14:41:16;19.00;41.10
4584;DHT22;2304;47.606;12.186;2024-02-16T14:46:19;19.00;39.90
4584;DHT22;2304;47.606;12.186;2024-02-16T14:51:21;19.00;39.60
4584;DHT22;2304;47.606;12.186;2024-02-16T14:56:23;19.00;39.40
4584;DHT22;2304;47.606;12.186;2024-02-16T15:01:26;18.80;39.00
4584;DHT22;2304;47.606;12.186;2024-02-16T15:06:28;18.70;39.60
4584;DHT22;2304;47.606;12.186;2024-02-16T15:11:33;18.70;39.90
4584;DHT22;2304;47.606;12.186;2024-02-16T15:16:36;18.70;40.40
4584;DHT22;2304;47.606;12.186;2024-02-16T15:21:38;18.70;40.90
4584;DHT22;2304;47.606;12.186;2024-02-16T15:26:40;18.60;40.50
4584;DHT22;2304;47.606;12.186;2024-02-16T15:31:43;18.50;40.80
4584;DHT22;2304;47.606;12.186;2024-02-16T15:36:45;18.40;41.10
4584;DHT22;2304;47.606;12.186;2024-02-16T15:41:47;18.20;41.70
4584;DHT22;2304;47.606;12.186;2024-02-16T15:46:50;18.10;42.10
4584;DHT22;2304;47.606;12.186;2024-02-16T15:51:52;18.00;42.40
4584;DHT22;2304;47.606;12.186;2024-02-16T15:56:54;17.80;42.70
4584;DHT22;2304;47.606;12.186;2024-02-16T16:01:57;17.70;43.50
4584;DHT22;2304;47.606;12.186;2024-02-16T16:06:59;17.60;44.20
4584;DHT22;2304;47.606;12.186;2024-02-16T16:12:00;17.40;44.80
4584;DHT22;2304;47.606;12.186;2024-02-16T16:17:04;17.30;45.30
4584;DHT22;2304;47.606;12.186;2024-02-16T16:22:06;17.10;45.80
4584;DHT22;2304;47.606;12.186;2024-02-16T16:27:08;17.00;46.30
4584;DHT22;2304;47.606;12.186;2024-02-16T16:32:11;16.80;46.80
4584;DHT22;2304;47.606;12.186;2024-02-16T16:37:14;16.60;47.20
4584;DHT22;2304;47.606;12.186;2024-02-16T16:42:15;16.50;47.20
4584;DHT22;2304;47.606;12.186;2024-02-16T16:47:19;16.40;47.50
4584;DHT22;2304;47.606;12.186;2024-02-16T16:52:21;16.20;47.80
4584;DHT22;2304;47.606;12.186;2024-02-16T16:57:22;16.00;49.10
4584;DHT22;2304;47.606;12.186;2024-02-16T17:02:26;15.80;50.10
4584;DHT22;2304;47.606;12.186;2024-02-16T17:07:28;15.70;50.80
4584;DHT22;2304;47.606;12.186;2024-02-16T17:12:32;15.60;50.80
4584;DHT22;2304;47.606;12.186;2024-02-16T17:17:35;15.50;51.10
4584;DHT22;2304;47.606;12.186;2024-02-16T17:22:37;15.40;51.10
4584;DHT22;2304;47.606;12.186;2024-02-16T17:27:39;15.30;51.30
4584;DHT22;2304;47.606;12.186;2024-02-16T17:32:42;15.20;51.80
4584;DHT22;2304;47.606;12.186;2024-02-16T17:37:45;15.00;52.50
4584;DHT22;2304;47.606;12.186;2024-02-16T17:42:47;14.80;52.90
4584;DHT22;2304;47.606;12.186;2024-02-16T17:47:50;14.70;53.20
4584;DHT22;2304;47.606;12.186;2024-02-16T17:52:52;14.60;53.50
4584;DHT22;2304;47.606;12.186;2024-02-16T17:57:54;14.50;53.60
4584;DHT22;2304;47.606;12.186;2024-02-16T18:02:57;14.40;53.80
4584;DHT22;2304;47.606;12.186;2024-02-16T18:07:59;14.20;54.50
4584;DHT22;2304;47.606;12.186;2024-02-16T18:13:01;14.20;54.70
4584;DHT22;2304;47.606;12.186;2024-02-16T18:18:05;14.00;54.90
4584;DHT22;2304;47.606;12.186;2024-02-16T18:23:06;13.80;55.60
4584;DHT22;2304;47.606;12.186;2024-02-16T18:28:08;13.70;55.70
4584;DHT22;2304;47.606;12.186;2024-02-16T18:33:12;13.70;56.00
4584;DHT22;2304;47.606;12.186;2024-02-16T18:38:14;13.50;56.20
4584;DHT22;2304;47.606;12.186;2024-02-16T18:43:16;13.50;56.50
4584;DHT22;2304;47.606;12.186;2024-02-16T18:48:19;13.40;56.40
4584;DHT22;2304;47.606;12.186;2024-02-16T18:53:24;13.30;57.00
4584;DHT22;2304;47.606;12.186;2024-02-16T18:58:26;13.30;56.80
4584;DHT22;2304;47.606;12.186;2024-02-16T19:03:30;13.20;57.20
4584;DHT22;2304;47.606;12.186;2024-02-16T19:08:33;13.10;57.70
4584;DHT22;2304;47.606;12.186;2024-02-16T19:13:35;13.00;57.90
4584;DHT22;2304;47.606;12.186;2024-02-16T19:18:39;12.90;58.10
4584;DHT22;2304;47.606;12.186;2024-02-16T19:23:41;12.80;58.20
4584;DHT22;2304;47.606;12.186;2024-02-16T19:28:43;12.70;58.40
4584;DHT22;2304;47.606;12.186;2024-02-16T19:33:46;12.70;58.60
4584;DHT22;2304;47.606;12.186;2024-02-16T19:38:48;12.60;58.90
4584;DHT22;2304;47.606;12.186;2024-02-16T19:43:50;12.60;59.30
4584;DHT22;2304;47.606;12.186;2024-02-16T19:48:53;12.50;60.20
4584;DHT22;2304;47.606;12.186;2024-02-16T19:53:55;12.40;60.00
4584;DHT22;2304;47.606;12.186;2024-02-16T19:58:57;12.30;59.60
4584;DHT22;2304;47.606;12.186;2024-02-16T20:04:00;12.30;59.60
4584;DHT22;2304;47.606;12.186;2024-02-16T20:09:02;12.20;59.80
4584;DHT22;2304;47.606;12.186;2024-02-16T20:14:05;12.20;60.40
4584;DHT22;2304;47.606;12.186;2024-02-16T20:19:08;12.10;61.40
4584;DHT22;2304;47.606;12.186;2024-02-16T20:24:10;12.20;61.20
4584;DHT22;2304;47.606;12.186;2024-02-16T20:29:13;12.00;61.30
4584;DHT22;2304;47.606;12.186;2024-02-16T20:34:16;11.90;61.70
4584;DHT22;2304;47.606;12.186;2024-02-16T20:39:18;11.90;61.50
4584;DHT22;2304;47.606;12.186;2024-02-16T20:44:20;11.80;61.80
4584;DHT22;2304;47.606;12.186;2024-02-16T20:49:23;11.80;61.60
4584;DHT22;2304;47.606;12.186;2024-02-16T20:54:26;11.70;61.30
4584;DHT22;2304;47.606;12.186;2024-02-16T20:59:30;11.70;61.10
4584;DHT22;2304;47.606;12.186;2024-02-16T21:04:35;11.70;61.50
4584;DHT22;2304;47.606;12.186;2024-02-16T21:09:37;11.60;61.40
4584;DHT22;2304;47.606;12.186;2024-02-16T21:14:38;11.50;61.80
4584;DHT22;2304;47.606;12.186;2024-02-16T21:19:42;11.50;61.90
4584;DHT22;2304;47.606;12.186;2024-02-16T21:24:45;11.50;62.00
4584;DHT22;2304;47.606;12.186;2024-02-16T21:29:48;11.40;62.50
4584;DHT22;2304;47.606;12.186;2024-02-16T21:34:52;11.50;62.50
4584;DHT22;2304;47.606;12.186;2024-02-16T21:39:54;11.40;62.40
4584;DHT22;2304;47.606;12.186;2024-02-16T21:44:57;11.30;62.40
4584;DHT22;2304;47.606;12.186;2024-02-16T21:50:00;11.40;62.20
4584;DHT22;2304;47.606;12.186;2024-02-16T21:55:03;11.30;62.90
4584;DHT22;2304;47.606;12.186;2024-02-16T22:00:06;11.30;63.10
4584;DHT22;2304;47.606;12.186;2024-02-16T22:05:10;11.30;63.00
4584;DHT22;2304;47.606;12.186;2024-02-16T22:10:13;11.30;62.90
4584;DHT22;2304;47.606;12.186;2024-02-16T22:15:14;11.20;62.90
4584;DHT22;2304;47.606;12.186;2024-02-16T22:20:18;11.10;63.00
4584;DHT22;2304;47.606;12.186;2024-02-16T22:25:20;11.20;62.90
4584;DHT22;2304;47.606;12.186;2024-02-16T22:30:22;11.50;62.50
4584;DHT22;2304;47.606;12.186;2024-02-16T22:35:25;11.30;62.00
4584;DHT22;2304;47.606;12.186;2024-02-16T22:40:27;11.30;62.10
4584;DHT22;2304;47.606;12.186;2024-02-16T22:45:29;11.30;62.20
4584;DHT22;2304;47.606;12.186;2024-02-16T22:50:32;11.30;62.10
4584;DHT22;2304;47.606;12.186;2024-02-16T22:55:34;11.30;62.30
4584;DHT22;2304;47.606;12.186;2024-02-16T23:00:37;11.30;62.30
4584;DHT22;2304;47.606;12.186;2024-02-16T23:05:43;11.20;62.50
4584;DHT22;2304;47.606;12.186;2024-02-16T23:10:46;11.10;62.70
4584;DHT22;2304;47.606;12.186;2024-02-16T23:15:48;11.10;63.30
4584;DHT22;2304;47.606;12.186;2024-02-16T23:20:51;11.10;62.90
4584;DHT22;2304;47.606;12.186;2024-02-16T23:25:54;11.10;62.60
4584;DHT22;2304;47.606;12.186;2024-02-16T23:30:56;11.10;62.50
4584;DHT22;2304;47.606;12.186;2024-02-16T23:35:59;11.10;62.50
4584;DHT22;2304;47.606;12.186;2024-02-16T23:41:01;11.10;62.40
4584;DHT22;2304;47.606;12.186;2024-02-16T23:46:03;11.10;62.70
4584;DHT22;2304;47.606;12.186;2024-02-16T23:51:08;11.10;63.10
4584;DHT22;2304;47.606;12.186;2024-02-16T23:56:11;11.30;63.20
